createdAt,value
2022-08-22T00:00:13.691Z,57.00
2022-08-22T00:02:45.628Z,48.00
2022-08-22T00:02:46.510Z,53.70
2022-08-22T00:02:47.891Z,46.00
2022-08-22T00:02:53.911Z,51.30
2022-08-22T00:03:03.384Z,53.20
2022-08-22T00:03:04.653Z,48.40
2022-08-22T00:03:07.725Z,48.10
2022-08-22T00:03:09.032Z,50.80
2022-08-22T00:03:10.645Z,50.30
2022-08-22T00:03:19.181Z,57.20
2022-08-22T00:06:04.181Z,57.90
2022-08-22T00:08:49.774Z,57.80
2022-08-22T00:11:35.394Z,57.80
2022-08-22T00:14:24.449Z,58.10
2022-08-22T00:17:22.340Z,58.20
2022-08-22T00:20:07.574Z,58.00
2022-08-22T00:22:55.428Z,58.40
2022-08-22T00:25:44.022Z,58.50
2022-08-22T00:28:22.961Z,58.80
2022-08-22T00:31:26.497Z,58.70
2022-08-22T00:34:07.009Z,59.00
2022-08-22T00:37:02.225Z,58.90
2022-08-22T00:39:40.901Z,58.90
2022-08-22T00:42:32.380Z,58.80
2022-08-22T00:45:24.399Z,59.00
2022-08-22T00:48:16.602Z,59.10
2022-08-22T00:51:32.448Z,58.90
2022-08-22T00:54:15.882Z,58.90
2022-08-22T00:56:57.648Z,58.30
2022-08-22T00:59:52.941Z,59.00
2022-08-22T01:02:52.764Z,59.30
2022-08-22T01:05:39.073Z,59.30
2022-08-22T01:08:23.432Z,59.10
2022-08-22T01:11:20.233Z,59.40
2022-08-22T01:14:08.757Z,59.30
2022-08-22T01:16:50.316Z,59.40
2022-08-22T01:19:34.857Z,58.90
2022-08-22T01:22:35.117Z,59.20
2022-08-22T01:25:38.796Z,59.40
2022-08-22T01:28:40.757Z,59.30
2022-08-22T01:31:37.783Z,59.30
2022-08-22T01:34:32.886Z,59.20
2022-08-22T01:37:11.347Z,59.10
2022-08-22T01:40:02.509Z,58.80
2022-08-22T01:42:43.793Z,59.10
2022-08-22T01:45:14.132Z,58.60
2022-08-22T01:48:05.150Z,58.70
2022-08-22T01:50:47.441Z,59.10
2022-08-22T01:53:25.713Z,59.00
2022-08-22T01:56:18.620Z,59.20
2022-08-22T01:59:00.203Z,58.90
2022-08-22T02:01:28.629Z,59.00
2022-08-22T02:04:03.449Z,58.30
2022-08-22T02:06:42.545Z,58.60
2022-08-22T02:09:28.136Z,58.60
2022-08-22T02:12:31.290Z,58.50
2022-08-22T02:15:25.231Z,58.70
2022-08-22T02:18:07.038Z,58.50
2022-08-22T02:21:25.610Z,58.80
2022-08-22T02:24:14.452Z,58.60
2022-08-22T02:27:08.435Z,58.70
2022-08-22T02:29:44.085Z,58.70
2022-08-22T02:32:29.130Z,58.60
2022-08-22T02:35:12.511Z,58.60
2022-08-22T02:37:56.801Z,58.60
2022-08-22T02:40:41.277Z,58.50
2022-08-22T02:43:29.169Z,58.80
2022-08-22T02:46:25.684Z,59.00
2022-08-22T02:49:27.427Z,58.90
2022-08-22T02:52:24.141Z,58.90
2022-08-22T02:55:01.645Z,59.00
2022-08-22T02:57:41.300Z,58.80
2022-08-22T03:00:31.918Z,59.10
2022-08-22T03:03:14.470Z,58.90
2022-08-22T03:05:43.521Z,59.30
2022-08-22T03:08:37.873Z,58.80
2022-08-22T03:11:29.552Z,59.50
2022-08-22T03:14:16.296Z,59.70
2022-08-22T03:17:02.938Z,59.70
2022-08-22T03:20:07.096Z,59.80
2022-08-22T03:22:39.313Z,59.80
2022-08-22T03:25:21.995Z,59.70
2022-08-22T03:28:07.957Z,60.30
2022-08-22T03:30:55.869Z,60.20
2022-08-22T03:33:30.614Z,60.10
2022-08-22T03:36:03.962Z,59.80
2022-08-22T03:38:33.664Z,59.80
2022-08-22T03:41:16.862Z,59.80
2022-08-22T03:44:18.526Z,60.40
2022-08-22T03:47:00.892Z,60.50
2022-08-22T03:49:59.458Z,60.20
2022-08-22T03:53:15.602Z,60.20
2022-08-22T03:56:10.753Z,60.20
2022-08-22T03:58:49.409Z,59.90
2022-08-22T04:01:56.057Z,60.10
2022-08-22T04:04:38.425Z,60.20
2022-08-22T04:07:31.552Z,59.50
2022-08-22T04:10:33.526Z,60.30
2022-08-22T04:13:10.832Z,60.20
2022-08-22T04:16:04.166Z,60.40
2022-08-22T04:18:58.153Z,60.10
2022-08-22T04:21:33.370Z,60.40
2022-08-22T04:24:17.753Z,60.00
2022-08-22T04:26:55.142Z,60.10
2022-08-22T04:29:30.777Z,60.30
2022-08-22T04:32:16.121Z,60.10
2022-08-22T04:34:51.541Z,60.40
2022-08-22T04:37:38.908Z,60.40
2022-08-22T04:40:32.761Z,60.60
2022-08-22T04:43:12.858Z,60.60
2022-08-22T04:45:53.842Z,60.10
2022-08-22T04:48:34.176Z,60.20
2022-08-22T04:51:09.059Z,60.60
2022-08-22T04:54:05.525Z,59.90
2022-08-22T04:57:23.972Z,60.60
2022-08-22T04:59:52.493Z,60.90
2022-08-22T05:02:27.490Z,60.40
2022-08-22T05:05:13.143Z,61.20
2022-08-22T05:07:50.059Z,61.50
2022-08-22T05:10:30.761Z,61.60
2022-08-22T05:13:02.964Z,61.70
2022-08-22T05:15:40.267Z,62.00
2022-08-22T05:18:17.168Z,62.40
2022-08-22T05:20:50.224Z,62.40
2022-08-22T05:23:49.018Z,62.40
2022-08-22T05:26:18.543Z,63.30
2022-08-22T05:28:53.565Z,62.50
2022-08-22T05:31:31.475Z,62.90
2022-08-22T05:34:07.003Z,63.70
2022-08-22T05:36:53.884Z,63.50
2022-08-22T05:39:25.448Z,63.80
2022-08-22T05:42:00.221Z,63.60
2022-08-22T05:44:30.176Z,63.50
2022-08-22T05:47:21.392Z,63.20
2022-08-22T05:50:14.005Z,64.20
2022-08-22T05:52:49.841Z,64.50
2022-08-22T05:55:21.986Z,63.30
2022-08-22T05:58:21.022Z,63.50
2022-08-22T06:01:29.928Z,64.00
2022-08-22T06:04:23.910Z,64.60
2022-08-22T06:06:59.872Z,64.00
2022-08-22T06:09:48.924Z,64.20
2022-08-22T06:12:35.954Z,64.70
2022-08-22T06:15:48.177Z,64.30
2022-08-22T06:18:20.799Z,64.90
2022-08-22T06:20:58.565Z,64.10
2022-08-22T06:23:30.260Z,64.30
2022-08-22T06:26:00.113Z,64.70
2022-08-22T06:28:32.705Z,64.40
2022-08-22T06:31:02.147Z,64.50
2022-08-22T06:33:35.120Z,64.20
2022-08-22T06:36:30.435Z,63.90
2022-08-22T06:39:12.954Z,63.60
2022-08-22T06:41:42.349Z,64.10
2022-08-22T06:44:16.333Z,63.20
2022-08-22T06:46:46.013Z,63.40
2022-08-22T06:49:15.834Z,63.20
2022-08-22T06:51:45.116Z,62.80
2022-08-22T06:54:24.517Z,62.60
2022-08-22T06:56:52.939Z,62.60
2022-08-22T06:59:25.797Z,62.80
2022-08-22T07:02:04.195Z,62.80
2022-08-22T07:04:31.633Z,62.20
2022-08-22T07:07:01.177Z,61.70
2022-08-22T07:09:38.013Z,61.60
2022-08-22T07:12:13.177Z,61.80
2022-08-22T07:14:44.293Z,61.50
2022-08-22T07:17:26.601Z,61.10
2022-08-22T07:20:07.295Z,61.00
2022-08-22T07:22:37.380Z,60.90
2022-08-22T07:25:14.252Z,60.70
2022-08-22T07:27:43.972Z,60.60
2022-08-22T07:30:27.496Z,60.40
2022-08-22T07:33:21.049Z,60.60
2022-08-22T07:36:03.905Z,60.30
2022-08-22T07:38:50.994Z,60.10
2022-08-22T07:41:34.527Z,59.90
2022-08-22T07:44:23.402Z,59.70
2022-08-22T07:47:00.559Z,59.70
2022-08-22T07:49:38.182Z,59.80
2022-08-22T07:52:11.653Z,60.70
2022-08-22T07:54:48.147Z,59.80
2022-08-22T07:57:34.354Z,60.20
2022-08-22T08:00:05.672Z,60.00
2022-08-22T08:02:46.840Z,59.80
2022-08-22T08:05:19.828Z,59.80
2022-08-22T08:07:47.897Z,59.80
2022-08-22T08:10:23.956Z,59.80
2022-08-22T08:13:02.591Z,60.00
2022-08-22T08:15:35.086Z,59.90
2022-08-22T08:18:10.831Z,59.70
2022-08-22T08:20:39.154Z,59.40
2022-08-22T08:23:11.844Z,59.20
2022-08-22T08:25:55.353Z,59.20
2022-08-22T08:28:37.559Z,58.80
2022-08-22T08:31:26.849Z,58.70
2022-08-22T08:34:27.782Z,58.40
2022-08-22T08:37:03.384Z,57.50
2022-08-22T08:39:40.182Z,57.50
2022-08-22T08:42:59.026Z,56.90
2022-08-22T08:46:13.654Z,57.10
2022-08-22T08:49:24.086Z,56.70
2022-08-22T08:52:25.561Z,55.60
2022-08-22T08:55:21.982Z,55.60
2022-08-22T08:58:37.980Z,54.60
2022-08-22T09:01:58.233Z,54.60
2022-08-22T09:04:44.046Z,54.00
2022-08-22T09:07:15.937Z,53.60
2022-08-22T09:09:52.261Z,53.00
2022-08-22T09:12:37.588Z,52.30
2022-08-22T09:15:37.610Z,51.00
2022-08-22T09:18:29.649Z,51.50
2022-08-22T09:21:30.857Z,51.20
2022-08-22T09:24:26.049Z,50.00
2022-08-22T09:27:01.045Z,49.70
2022-08-22T09:29:54.941Z,49.80
2022-08-22T09:32:37.254Z,48.80
2022-08-22T09:35:23.081Z,48.50
2022-08-22T09:38:11.413Z,48.50
2022-08-22T09:41:01.271Z,48.60
2022-08-22T09:43:48.661Z,48.60
2022-08-22T09:46:36.923Z,46.50
2022-08-22T09:49:28.761Z,46.40
2022-08-22T09:52:15.179Z,46.50
2022-08-22T09:54:59.875Z,45.60
2022-08-22T09:57:51.196Z,45.60
2022-08-22T10:00:25.645Z,45.10
2022-08-22T10:03:16.665Z,45.30
2022-08-22T10:06:09.194Z,44.10
2022-08-22T10:09:05.488Z,44.00
2022-08-22T10:11:42.204Z,43.10
2022-08-22T10:14:23.734Z,43.50
2022-08-22T10:17:07.163Z,42.90
2022-08-22T10:19:45.923Z,42.60
2022-08-22T10:22:41.800Z,42.90
2022-08-22T10:25:31.925Z,43.00
2022-08-22T10:28:20.032Z,42.60
2022-08-22T10:31:21.522Z,42.00
2022-08-22T10:34:11.411Z,41.40
2022-08-22T10:36:55.885Z,40.70
2022-08-22T10:39:32.592Z,41.60
2022-08-22T10:42:20.139Z,41.20
2022-08-22T10:45:23.952Z,41.20
2022-08-22T10:48:08.617Z,41.30
2022-08-22T10:50:50.963Z,40.60
2022-08-22T10:53:34.772Z,39.90
2022-08-22T10:56:21.488Z,39.80
2022-08-22T10:59:13.333Z,40.10
2022-08-22T11:02:00.141Z,40.10
2022-08-22T11:05:17.927Z,39.90
2022-08-22T11:07:48.533Z,39.50
2022-08-22T11:10:30.880Z,39.50
2022-08-22T11:13:32.805Z,38.50
2022-08-22T11:16:17.296Z,38.70
2022-08-22T11:19:31.131Z,38.60
2022-08-22T11:22:16.263Z,38.70
2022-08-22T11:25:04.624Z,38.30
2022-08-22T11:28:04.084Z,38.20
2022-08-22T11:31:07.284Z,37.80
2022-08-22T11:34:03.532Z,38.20
2022-08-22T11:37:04.383Z,37.60
2022-08-22T11:39:49.180Z,38.00
2022-08-22T11:42:29.648Z,37.40
2022-08-22T11:44:59.627Z,37.80
2022-08-22T11:47:37.446Z,37.90
2022-08-22T11:50:35.220Z,37.60
2022-08-22T11:53:13.688Z,37.70
2022-08-22T11:56:05.442Z,37.00
2022-08-22T11:58:51.177Z,37.70
2022-08-22T12:01:23.265Z,37.10
2022-08-22T12:04:09.689Z,37.40
2022-08-22T12:06:56.949Z,38.50
2022-08-22T12:09:43.592Z,37.50
2022-08-22T12:12:24.882Z,36.60
2022-08-22T12:15:02.597Z,36.40
2022-08-22T12:18:20.070Z,36.40
2022-08-22T12:21:17.249Z,36.90
2022-08-22T12:24:19.423Z,37.10
2022-08-22T12:27:08.450Z,36.80
2022-08-22T12:29:54.702Z,36.30
2022-08-22T12:32:54.290Z,36.10
2022-08-22T12:35:52.951Z,36.10
2022-08-22T12:38:38.535Z,35.40
2022-08-22T12:41:35.068Z,35.60
2022-08-22T12:44:16.404Z,35.60
2022-08-22T12:46:57.619Z,35.60
2022-08-22T12:49:36.858Z,35.10
2022-08-22T12:52:15.087Z,35.10
2022-08-22T12:54:52.076Z,34.60
2022-08-22T12:57:40.003Z,34.80
2022-08-22T13:00:30.353Z,34.20
2022-08-22T13:03:02.195Z,34.80
2022-08-22T13:05:30.975Z,34.00
2022-08-22T13:08:11.307Z,33.90
2022-08-22T13:10:47.849Z,34.10
2022-08-22T13:13:44.883Z,34.00
2022-08-22T13:16:27.825Z,33.60
2022-08-22T13:19:07.401Z,34.20
2022-08-22T13:21:42.387Z,34.50
2022-08-22T13:24:16.840Z,33.70
2022-08-22T13:26:55.353Z,33.90
2022-08-22T13:29:39.098Z,34.80
2022-08-22T13:32:16.246Z,34.30
2022-08-22T13:34:52.696Z,35.10
2022-08-22T13:37:28.879Z,35.00
2022-08-22T13:40:05.281Z,35.50
2022-08-22T13:42:35.926Z,34.70
2022-08-22T13:45:14.001Z,34.80
2022-08-22T13:47:52.071Z,33.80
2022-08-22T13:50:52.924Z,33.50
2022-08-22T13:54:00.921Z,33.00
2022-08-22T13:56:47.382Z,32.80
2022-08-22T13:59:50.110Z,29.90
2022-08-22T14:02:38.843Z,28.80
2022-08-22T14:05:16.991Z,28.70
2022-08-22T14:08:01.469Z,27.20
2022-08-22T14:10:34.230Z,26.60
2022-08-22T14:13:00.974Z,26.30
2022-08-22T14:15:45.016Z,26.00
2022-08-22T14:18:30.006Z,25.80
2022-08-22T14:21:40.017Z,25.30
2022-08-22T14:24:28.946Z,24.70
2022-08-22T14:27:06.465Z,26.10
2022-08-22T14:29:57.379Z,24.90
2022-08-22T14:32:45.510Z,25.40
2022-08-22T14:35:44.004Z,24.80
2022-08-22T14:38:29.727Z,24.80
2022-08-22T14:41:55.621Z,24.20
2022-08-22T14:44:36.405Z,25.10
2022-08-22T14:47:32.221Z,24.30
2022-08-22T14:50:00.945Z,24.60
2022-08-22T14:52:44.008Z,24.10
2022-08-22T14:55:19.924Z,24.30
2022-08-22T14:57:56.096Z,24.40
2022-08-22T15:00:32.450Z,24.10
2022-08-22T15:03:38.298Z,24.40
2022-08-22T15:06:49.283Z,25.00
2022-08-22T15:09:37.220Z,25.20
2022-08-22T15:12:19.010Z,24.80
2022-08-22T15:14:52.255Z,26.50
2022-08-22T15:17:44.063Z,24.70
2022-08-22T15:20:22.748Z,24.90
2022-08-22T15:22:56.966Z,24.00
2022-08-22T15:25:34.961Z,23.10
2022-08-22T15:28:07.753Z,22.70
2022-08-22T15:30:44.280Z,22.50
2022-08-22T15:33:16.116Z,22.50
2022-08-22T15:35:45.195Z,22.60
2022-08-22T15:38:39.773Z,22.90
2022-08-22T15:41:31.199Z,23.40
2022-08-22T15:44:32.479Z,23.50
2022-08-22T15:47:11.564Z,23.60
2022-08-22T15:49:50.572Z,23.90
2022-08-22T15:52:32.933Z,24.50
2022-08-22T15:55:17.047Z,24.30
2022-08-22T15:58:13.071Z,24.60
2022-08-22T16:01:19.231Z,24.80
2022-08-22T16:04:04.844Z,25.40
2022-08-22T16:06:44.161Z,25.80
2022-08-22T16:09:42.642Z,25.90
2022-08-22T16:12:23.977Z,25.90
2022-08-22T16:14:56.065Z,25.60
2022-08-22T16:17:31.022Z,25.90
2022-08-22T16:20:19.575Z,25.80
2022-08-22T16:23:07.101Z,25.80
2022-08-22T16:25:46.272Z,25.30
2022-08-22T16:28:57.336Z,24.80
2022-08-22T16:31:35.249Z,25.20
2022-08-22T16:34:20.130Z,24.70
2022-08-22T16:37:11.457Z,25.30
2022-08-22T16:39:47.047Z,25.50
2022-08-22T16:42:18.252Z,25.70
2022-08-22T16:45:05.187Z,26.30
2022-08-22T16:47:41.491Z,26.40
2022-08-22T16:50:23.088Z,26.30
2022-08-22T16:53:11.332Z,25.80
2022-08-22T16:55:41.665Z,25.70
2022-08-22T16:58:23.021Z,25.80
2022-08-22T17:01:15.962Z,25.80
2022-08-22T17:04:14.779Z,25.80
2022-08-22T17:06:52.693Z,25.00
2022-08-22T17:09:53.572Z,24.70
2022-08-22T17:12:57.628Z,24.60
2022-08-22T17:15:34.451Z,24.40
2022-08-22T17:18:13.877Z,24.10
2022-08-22T17:20:57.973Z,24.70
2022-08-22T17:24:33.629Z,24.90
2022-08-22T17:27:16.101Z,25.00
2022-08-22T17:30:03.969Z,24.70
2022-08-22T17:33:09.799Z,24.70
2022-08-22T17:35:55.182Z,25.30
2022-08-22T17:38:37.660Z,25.30
2022-08-22T17:41:40.450Z,25.50
2022-08-22T17:44:07.066Z,26.20
2022-08-22T17:46:42.449Z,26.70
2022-08-22T17:49:22.349Z,27.70
2022-08-22T17:52:36.066Z,27.90
2022-08-22T17:55:28.308Z,28.10
2022-08-22T17:58:11.595Z,28.40
2022-08-22T18:00:50.633Z,29.10
2022-08-22T18:03:32.638Z,29.60
2022-08-22T18:06:15.054Z,29.80
2022-08-22T18:12:21.184Z,30.20
2022-08-22T18:14:58.274Z,30.30
2022-08-22T18:17:50.684Z,30.60
2022-08-22T18:20:36.114Z,30.80
2022-08-22T18:23:35.667Z,31.60
2022-08-22T18:26:27.071Z,31.70
2022-08-22T18:29:26.607Z,32.60
2022-08-22T18:32:14.876Z,33.10
2022-08-22T18:34:46.992Z,34.10
2022-08-22T18:37:35.741Z,34.90
2022-08-22T18:40:25.970Z,36.20
2022-08-22T18:42:59.721Z,36.80
2022-08-22T18:45:47.533Z,36.90
2022-08-22T18:48:29.113Z,37.60
2022-08-22T18:51:20.206Z,38.60
2022-08-22T18:54:25.439Z,38.50
2022-08-22T18:56:58.063Z,38.90
2022-08-22T18:59:41.200Z,39.30
2022-08-22T19:02:32.516Z,40.30
2022-08-22T19:05:17.795Z,40.90
2022-08-22T19:08:22.565Z,41.20
2022-08-22T19:11:05.664Z,41.30
2022-08-22T19:14:06.304Z,42.00
2022-08-22T19:17:04.980Z,42.20
2022-08-22T19:20:12.259Z,42.70
2022-08-22T19:22:39.082Z,43.00
2022-08-22T19:25:09.151Z,42.70
2022-08-22T19:27:40.430Z,43.00
2022-08-22T19:30:46.313Z,43.50
2022-08-22T19:33:40.337Z,43.80
2022-08-22T19:36:14.597Z,43.80
2022-08-22T19:39:04.860Z,44.10
2022-08-22T19:41:53.998Z,44.50
2022-08-22T19:44:20.610Z,44.60
2022-08-22T19:47:28.431Z,44.40
2022-08-22T19:49:58.673Z,45.00
2022-08-22T19:53:00.948Z,44.60
2022-08-22T19:55:36.753Z,44.80
2022-08-22T19:58:48.714Z,45.60
2022-08-22T20:01:44.170Z,45.30
2022-08-22T20:04:39.029Z,46.00
2022-08-22T20:07:05.669Z,46.40
2022-08-22T20:09:43.975Z,46.20
2022-08-22T20:12:33.778Z,46.60
2022-08-22T20:15:21.908Z,47.60
2022-08-22T20:21:00.039Z,47.80
2022-08-22T20:23:32.054Z,48.40
2022-08-22T20:26:01.616Z,48.70
2022-08-22T20:28:35.108Z,48.70
2022-08-22T20:31:07.437Z,48.60
2022-08-22T20:33:38.511Z,49.00
2022-08-22T20:36:24.240Z,49.40
2022-08-22T20:39:02.858Z,49.40
2022-08-22T20:41:42.908Z,49.90
2022-08-22T20:44:30.941Z,50.20
2022-08-22T20:47:07.181Z,50.30
2022-08-22T20:49:43.354Z,50.00
2022-08-22T20:52:35.518Z,50.50
2022-08-22T20:55:25.829Z,50.80
2022-08-22T20:58:18.257Z,51.00
2022-08-22T21:00:50.717Z,50.90
2022-08-22T21:03:42.577Z,50.70
2022-08-22T21:06:12.265Z,51.10
2022-08-22T21:08:40.446Z,50.60
2022-08-22T21:11:34.193Z,50.70
2022-08-22T21:14:22.939Z,50.70
2022-08-22T21:16:52.979Z,51.00
2022-08-22T21:19:31.696Z,50.50
2022-08-22T21:22:25.552Z,51.20
2022-08-22T21:24:58.306Z,51.10
2022-08-22T21:27:30.912Z,50.80
2022-08-22T21:30:07.805Z,51.40
2022-08-22T21:32:53.707Z,51.10
2022-08-22T21:35:27.596Z,51.50
2022-08-22T21:37:59.932Z,51.70
2022-08-22T21:40:35.049Z,51.50
2022-08-22T21:43:04.368Z,52.00
2022-08-22T21:45:30.986Z,51.80
2022-08-22T21:48:00.024Z,51.60
2022-08-22T21:50:37.953Z,51.80
2022-08-22T21:53:12.060Z,52.30
2022-08-22T21:55:44.212Z,52.90
2022-08-22T21:58:36.972Z,52.60
2022-08-22T22:01:31.032Z,53.10
2022-08-22T22:04:06.756Z,53.00
2022-08-22T22:06:33.454Z,52.40
2022-08-22T22:09:00.169Z,52.60
2022-08-22T22:11:29.182Z,52.70
2022-08-22T22:13:58.158Z,52.80
2022-08-22T22:16:29.705Z,52.90
2022-08-22T22:19:01.578Z,53.00
2022-08-22T22:21:28.794Z,52.80
2022-08-22T22:23:58.708Z,52.80
2022-08-22T22:26:30.125Z,53.00
2022-08-22T22:28:58.610Z,52.90
2022-08-22T22:31:25.578Z,52.80
2022-08-22T22:33:55.194Z,52.80
2022-08-22T22:36:26.493Z,52.90
2022-08-22T22:38:53.994Z,52.90
2022-08-22T22:41:25.556Z,52.90
2022-08-22T22:43:58.249Z,53.00
2022-08-22T22:46:28.509Z,53.20
2022-08-22T22:48:59.516Z,52.90
2022-08-22T22:51:28.286Z,53.00
2022-08-22T22:53:56.674Z,53.10
2022-08-22T22:56:26.265Z,53.30
2022-08-22T22:58:59.299Z,53.50
2022-08-22T23:02:00.745Z,53.40
2022-08-22T23:04:30.239Z,53.50
2022-08-22T23:07:00.651Z,53.70
2022-08-22T23:09:38.341Z,53.70
2022-08-22T23:12:14.316Z,53.70
2022-08-22T23:14:45.806Z,54.20
2022-08-22T23:17:13.808Z,54.10
2022-08-22T23:19:43.284Z,53.90
2022-08-22T23:22:12.953Z,54.10
2022-08-22T23:24:42.807Z,54.20
2022-08-22T23:27:12.484Z,54.40
2022-08-22T23:29:40.949Z,54.50
2022-08-22T23:32:09.885Z,54.50
2022-08-22T23:34:45.650Z,54.40
2022-08-22T23:37:22.973Z,54.80
2022-08-22T23:39:54.932Z,54.60
2022-08-22T23:42:29.487Z,54.70
2022-08-22T23:44:56.294Z,54.80
2022-08-22T23:47:23.033Z,54.70
2022-08-22T23:49:51.845Z,54.80
2022-08-22T23:52:27.822Z,54.90
2022-08-22T23:55:04.256Z,55.10
2022-08-22T23:57:30.942Z,55.10
2022-08-22T23:59:58.708Z,55.00
